Aeroporto :
LOGIN :

Iscrizione | Disclaimer

   EN    FR    IT 

 










Sommario :    VFR   VFR Marginale   IFR   IFR Intensivo   IFR Molto Intensivo
Visibilità : 
Base nubi : 
>= 8 km
>= 3000ft
5 / 8 km
1000 / 3000 ft
1500m / 5 km
500 / 1000 ft
800 / 1500m
200 / 500 ft
< 800m
< 200 ft
Simboli :   Temporali  Nebbia  Neve Forte  Precipitazioni Forti  Vento > 20 kt
SIGMETs :   Varie  Temporali  Ghiacco  Turbolenza  Onda orograficha  Ceneri Vulcaniche






- Altitudine del aeroporto : 1234 ft
- Codice IATA : LUX


ELLX - Luxembourg Findel

ULTIMO METAR :
  • 191450Z VRB02KT 9999 FEW017 SCT030 04/01 Q1017 NOSIG

METARs OBSOLETI :
  • 191420Z 20003KT 9999 FEW020 04/01 Q1017 NOSIG
  • 191350Z 22005KT 170V250 9999 FEW030 05/01 Q1017 NOSIG
  • 191320Z 26003KT 170V320 9999 FEW030 06/02 Q1017 NOSIG
  • 191250Z VRB04KT 9999 FEW021TCU BKN030 05/00 Q1017 NOSIG
  • 191220Z 34003KT 280V030 9999 FEW018TCU SCT022 BKN029 05/01 Q1017 NOSIG

TAF COR TAF ELLX
Valido dal 19 a 12 ore il 20 a 18 ore UTC


191100Z 1912/2018 28007KT 9999 SCT010
TEMPO 1912/1921 BKN012
PROB40 1921/2009 0300 FZFG VV002
BECMG 2002/2004 09008KT
BECMG 2009/2012 BKN008
BECMG 2013/2015 BKN016
ATIS : +352 4798 27300
Met : +352 4798 27010 / 27050



MetMap, La meteo Aeronautica in un colpo d'occhio ! - Copyright ORBIFLY Dicembre 2007 - Disclaimer

ORBIFLY MET'MAP TEAM :

Programmazione e sviluppo : Alexandra Zaïnal
Concezione e sviluppo : Baudouin d'Aumeries
Co-Programmazione e sviluppo : Marc-Olivier Méhu
Supporto tecnico e logistico : Manuel Goepfert
Aiuto per la traduzione : Arnaldo La Scala

Contatto : metmap@orbifly.com




FONTI E CREDITI :

   NOAA